sensor_id;sensor_type;location;lat;lon;timestamp;P1;durP1;ratioP1;P2;durP2;ratioP2
61899;SDS011;47853;55.890;37.664;2023-04-24T00:01:28;27.13;;;8.00;;
61899;SDS011;47853;55.890;37.664;2023-04-24T00:03:54;23.20;;;8.23;;
61899;SDS011;47853;55.890;37.664;2023-04-24T00:06:19;24.70;;;7.63;;
61899;SDS011;47853;55.890;37.664;2023-04-24T00:08:44;28.40;;;8.23;;
61899;SDS011;47853;55.890;37.664;2023-04-24T00:11:09;21.23;;;7.13;;
61899;SDS011;47853;55.890;37.664;2023-04-24T00:13:34;20.67;;;7.00;;
61899;SDS011;47853;55.890;37.664;2023-04-24T00:16:00;26.33;;;9.05;;
61899;SDS011;47853;55.890;37.664;2023-04-24T00:18:25;25.40;;;7.20;;
61899;SDS011;47853;55.890;37.664;2023-04-24T00:20:50;19.73;;;7.57;;
61899;SDS011;47853;55.890;37.664;2023-04-24T00:23:15;20.87;;;6.87;;
61899;SDS011;47853;55.890;37.664;2023-04-24T00:25:40;17.33;;;7.13;;
61899;SDS011;47853;55.890;37.664;2023-04-24T00:28:05;16.23;;;6.93;;
61899;SDS011;47853;55.890;37.664;2023-04-24T00:30:31;24.83;;;7.93;;
61899;SDS011;47853;55.890;37.664;2023-04-24T00:32:56;22.30;;;7.70;;
61899;SDS011;47853;55.890;37.664;2023-04-24T00:35:22;20.85;;;6.68;;
61899;SDS011;47853;55.890;37.664;2023-04-24T00:37:47;18.85;;;6.35;;
61899;SDS011;47853;55.890;37.664;2023-04-24T00:40:12;14.63;;;6.63;;
61899;SDS011;47853;55.890;37.664;2023-04-24T00:42:38;21.83;;;6.82;;
61899;SDS011;47853;55.890;37.664;2023-04-24T00:45:04;15.90;;;7.40;;
61899;SDS011;47853;55.890;37.664;2023-04-24T00:47:29;15.90;;;6.60;;
61899;SDS011;47853;55.890;37.664;2023-04-24T00:49:54;20.30;;;7.15;;
61899;SDS011;47853;55.890;37.664;2023-04-24T00:52:19;20.03;;;7.83;;
61899;SDS011;47853;55.890;37.664;2023-04-24T00:54:45;19.07;;;7.20;;
61899;SDS011;47853;55.890;37.664;2023-04-24T00:57:10;15.45;;;6.68;;
61899;SDS011;47853;55.890;37.664;2023-04-24T00:59:35;17.00;;;7.53;;
61899;SDS011;47853;55.890;37.664;2023-04-24T01:02:00;13.82;;;7.30;;
61899;SDS011;47853;55.890;37.664;2023-04-24T01:04:26;17.30;;;7.20;;
61899;SDS011;47853;55.890;37.664;2023-04-24T01:06:51;12.73;;;7.15;;
61899;SDS011;47853;55.890;37.664;2023-04-24T01:09:16;21.50;;;7.45;;
61899;SDS011;47853;55.890;37.664;2023-04-24T01:11:42;14.75;;;6.80;;
61899;SDS011;47853;55.890;37.664;2023-04-24T01:14:07;14.33;;;7.00;;
61899;SDS011;47853;55.890;37.664;2023-04-24T01:16:32;16.77;;;7.13;;
61899;SDS011;47853;55.890;37.664;2023-04-24T01:18:58;16.75;;;6.97;;
61899;SDS011;47853;55.890;37.664;2023-04-24T01:21:23;22.00;;;7.77;;
61899;SDS011;47853;55.890;37.664;2023-04-24T01:23:48;22.58;;;7.10;;
61899;SDS011;47853;55.890;37.664;2023-04-24T01:26:15;15.70;;;6.65;;
61899;SDS011;47853;55.890;37.664;2023-04-24T01:28:40;19.35;;;7.68;;
61899;SDS011;47853;55.890;37.664;2023-04-24T01:31:05;22.33;;;7.57;;
61899;SDS011;47853;55.890;37.664;2023-04-24T01:33:30;20.88;;;7.70;;
61899;SDS011;47853;55.890;37.664;2023-04-24T01:35:56;13.13;;;7.28;;
61899;SDS011;47853;55.890;37.664;2023-04-24T01:38:21;15.27;;;7.82;;
61899;SDS011;47853;55.890;37.664;2023-04-24T01:40:46;16.10;;;7.53;;
61899;SDS011;47853;55.890;37.664;2023-04-24T01:43:12;16.60;;;8.00;;
61899;SDS011;47853;55.890;37.664;2023-04-24T01:45:37;20.27;;;7.63;;
61899;SDS011;47853;55.890;37.664;2023-04-24T01:48:02;19.13;;;7.55;;
61899;SDS011;47853;55.890;37.664;2023-04-24T01:50:28;16.10;;;6.93;;
61899;SDS011;47853;55.890;37.664;2023-04-24T01:52:53;13.97;;;7.30;;
61899;SDS011;47853;55.890;37.664;2023-04-24T01:55:18;19.90;;;8.47;;
61899;SDS011;47853;55.890;37.664;2023-04-24T01:57:43;18.67;;;9.03;;
61899;SDS011;47853;55.890;37.664;2023-04-24T02:00:08;24.97;;;8.93;;
61899;SDS011;47853;55.890;37.664;2023-04-24T02:02:34;20.33;;;8.50;;
61899;SDS011;47853;55.890;37.664;2023-04-24T02:04:59;31.50;;;9.33;;
61899;SDS011;47853;55.890;37.664;2023-04-24T02:07:24;19.00;;;9.00;;
61899;SDS011;47853;55.890;37.664;2023-04-24T02:09:49;18.03;;;8.57;;
61899;SDS011;47853;55.890;37.664;2023-04-24T02:12:15;15.77;;;8.73;;
61899;SDS011;47853;55.890;37.664;2023-04-24T02:14:40;20.23;;;9.27;;
61899;SDS011;47853;55.890;37.664;2023-04-24T02:17:05;22.85;;;10.07;;
61899;SDS011;47853;55.890;37.664;2023-04-24T02:19:30;17.92;;;9.57;;
61899;SDS011;47853;55.890;37.664;2023-04-24T02:21:56;23.60;;;10.15;;
61899;SDS011;47853;55.890;37.664;2023-04-24T02:24:21;16.35;;;9.45;;
61899;SDS011;47853;55.890;37.664;2023-04-24T02:26:46;18.10;;;9.38;;
61899;SDS011;47853;55.890;37.664;2023-04-24T02:29:11;21.40;;;9.60;;
61899;SDS011;47853;55.890;37.664;2023-04-24T02:31:36;26.93;;;10.07;;
61899;SDS011;47853;55.890;37.664;2023-04-24T02:34:02;21.63;;;9.88;;
61899;SDS011;47853;55.890;37.664;2023-04-24T02:36:27;19.27;;;10.57;;
61899;SDS011;47853;55.890;37.664;2023-04-24T02:38:52;27.27;;;11.03;;
61899;SDS011;47853;55.890;37.664;2023-04-24T02:41:17;20.63;;;9.90;;
61899;SDS011;47853;55.890;37.664;2023-04-24T02:43:42;21.67;;;10.17;;
61899;SDS011;47853;55.890;37.664;2023-04-24T02:46:07;18.53;;;9.37;;
61899;SDS011;47853;55.890;37.664;2023-04-24T02:48:33;16.10;;;9.80;;
61899;SDS011;47853;55.890;37.664;2023-04-24T02:50:58;24.00;;;10.53;;
61899;SDS011;47853;55.890;37.664;2023-04-24T02:53:23;16.15;;;9.63;;
61899;SDS011;47853;55.890;37.664;2023-04-24T02:55:48;26.80;;;10.67;;
61899;SDS011;47853;55.890;37.664;2023-04-24T02:58:13;18.45;;;9.35;;
61899;SDS011;47853;55.890;37.664;2023-04-24T03:00:39;16.17;;;10.13;;
61899;SDS011;47853;55.890;37.664;2023-04-24T03:03:04;25.88;;;10.68;;
61899;SDS011;47853;55.890;37.664;2023-04-24T03:05:29;21.25;;;10.07;;
61899;SDS011;47853;55.890;37.664;2023-04-24T03:07:54;22.67;;;9.53;;
61899;SDS011;47853;55.890;37.664;2023-04-24T03:10:19;20.90;;;9.95;;
61899;SDS011;47853;55.890;37.664;2023-04-24T03:12:45;27.93;;;10.13;;
61899;SDS011;47853;55.890;37.664;2023-04-24T03:15:13;32.70;;;9.77;;
61899;SDS011;47853;55.890;37.664;2023-04-24T03:17:38;27.00;;;10.10;;
61899;SDS011;47853;55.890;37.664;2023-04-24T03:20:03;29.67;;;10.73;;
61899;SDS011;47853;55.890;37.664;2023-04-24T03:22:28;27.13;;;9.88;;
61899;SDS011;47853;55.890;37.664;2023-04-24T03:24:54;29.23;;;10.30;;
61899;SDS011;47853;55.890;37.664;2023-04-24T03:27:19;25.37;;;10.47;;
61899;SDS011;47853;55.890;37.664;2023-04-24T03:29:44;23.90;;;10.53;;
61899;SDS011;47853;55.890;37.664;2023-04-24T03:32:09;21.37;;;10.73;;
61899;SDS011;47853;55.890;37.664;2023-04-24T03:34:34;25.90;;;10.60;;
61899;SDS011;47853;55.890;37.664;2023-04-24T03:36:59;23.67;;;10.13;;
61899;SDS011;47853;55.890;37.664;2023-04-24T03:39:25;27.37;;;10.30;;
61899;SDS011;47853;55.890;37.664;2023-04-24T03:41:50;29.90;;;10.93;;
61899;SDS011;47853;55.890;37.664;2023-04-24T03:44:15;34.00;;;11.50;;
61899;SDS011;47853;55.890;37.664;2023-04-24T03:46:40;30.70;;;10.70;;
61899;SDS011;47853;55.890;37.664;2023-04-24T03:49:05;27.70;;;11.38;;
61899;SDS011;47853;55.890;37.664;2023-04-24T03:51:30;31.87;;;10.80;;
61899;SDS011;47853;55.890;37.664;2023-04-24T03:53:56;26.70;;;10.67;;
61899;SDS011;47853;55.890;37.664;2023-04-24T03:56:21;30.40;;;11.17;;
61899;SDS011;47853;55.890;37.664;2023-04-24T03:58:46;25.50;;;11.30;;
61899;SDS011;47853;55.890;37.664;2023-04-24T04:01:11;22.92;;;12.05;;
61899;SDS011;47853;55.890;37.664;2023-04-24T04:03:36;27.33;;;10.32;;
61899;SDS011;47853;55.890;37.664;2023-04-24T04:06:02;29.43;;;11.77;;
61899;SDS011;47853;55.890;37.664;2023-04-24T04:08:27;34.42;;;11.60;;
61899;SDS011;47853;55.890;37.664;2023-04-24T04:10:52;34.87;;;12.03;;
61899;SDS011;47853;55.890;37.664;2023-04-24T04:13:17;37.03;;;13.40;;
61899;SDS011;47853;55.890;37.664;2023-04-24T04:15:42;30.47;;;13.17;;
61899;SDS011;47853;55.890;37.664;2023-04-24T04:18:08;26.77;;;11.47;;
61899;SDS011;47853;55.890;37.664;2023-04-24T04:20:33;31.80;;;12.90;;
61899;SDS011;47853;55.890;37.664;2023-04-24T04:22:58;32.50;;;11.30;;
61899;SDS011;47853;55.890;37.664;2023-04-24T04:25:23;25.63;;;11.27;;
61899;SDS011;47853;55.890;37.664;2023-04-24T04:27:48;24.07;;;11.03;;
61899;SDS011;47853;55.890;37.664;2023-04-24T04:30:13;29.65;;;12.57;;
61899;SDS011;47853;55.890;37.664;2023-04-24T04:32:39;24.27;;;10.68;;
61899;SDS011;47853;55.890;37.664;2023-04-24T04:35:04;22.40;;;11.98;;
61899;SDS011;47853;55.890;37.664;2023-04-24T04:37:30;20.05;;;11.20;;
61899;SDS011;47853;55.890;37.664;2023-04-24T04:39:55;26.80;;;12.13;;
61899;SDS011;47853;55.890;37.664;2023-04-24T04:42:20;30.87;;;12.47;;
61899;SDS011;47853;55.890;37.664;2023-04-24T04:44:45;26.95;;;11.45;;
61899;SDS011;47853;55.890;37.664;2023-04-24T04:47:10;18.27;;;11.20;;
61899;SDS011;47853;55.890;37.664;2023-04-24T04:49:37;25.30;;;10.18;;
61899;SDS011;47853;55.890;37.664;2023-04-24T04:52:02;21.73;;;10.93;;
61899;SDS011;47853;55.890;37.664;2023-04-24T04:54:27;22.40;;;11.37;;
61899;SDS011;47853;55.890;37.664;2023-04-24T04:56:52;27.57;;;11.57;;
61899;SDS011;47853;55.890;37.664;2023-04-24T04:59:17;29.73;;;10.20;;
61899;SDS011;47853;55.890;37.664;2023-04-24T05:01:42;20.07;;;10.93;;
61899;SDS011;47853;55.890;37.664;2023-04-24T05:04:08;22.80;;;10.70;;
61899;SDS011;47853;55.890;37.664;2023-04-24T05:06:33;24.67;;;10.55;;
61899;SDS011;47853;55.890;37.664;2023-04-24T05:08:58;20.90;;;11.13;;
61899;SDS011;47853;55.890;37.664;2023-04-24T05:11:23;24.80;;;11.10;;
61899;SDS011;47853;55.890;37.664;2023-04-24T05:13:48;23.08;;;8.82;;
61899;SDS011;47853;55.890;37.664;2023-04-24T05:16:14;27.00;;;11.43;;
61899;SDS011;47853;55.890;37.664;2023-04-24T05:18:39;23.77;;;9.73;;
61899;SDS011;47853;55.890;37.664;2023-04-24T05:21:04;18.53;;;8.90;;
61899;SDS011;47853;55.890;37.664;2023-04-24T05:23:29;24.77;;;9.27;;
61899;SDS011;47853;55.890;37.664;2023-04-24T05:25:54;20.83;;;9.20;;
61899;SDS011;47853;55.890;37.664;2023-04-24T05:28:22;22.90;;;8.10;;
61899;SDS011;47853;55.890;37.664;2023-04-24T05:30:47;18.55;;;7.65;;
61899;SDS011;47853;55.890;37.664;2023-04-24T05:33:13;17.63;;;8.70;;
61899;SDS011;47853;55.890;37.664;2023-04-24T05:35:38;13.63;;;7.07;;
61899;SDS011;47853;55.890;37.664;2023-04-24T05:38:04;17.55;;;7.53;;
61899;SDS011;47853;55.890;37.664;2023-04-24T05:40:29;14.13;;;6.93;;
61899;SDS011;47853;55.890;37.664;2023-04-24T05:42:55;18.93;;;7.63;;
61899;SDS011;47853;55.890;37.664;2023-04-24T05:45:20;20.77;;;7.33;;
61899;SDS011;47853;55.890;37.664;2023-04-24T05:47:45;19.07;;;7.80;;
61899;SDS011;47853;55.890;37.664;2023-04-24T05:50:10;15.70;;;6.60;;
61899;SDS011;47853;55.890;37.664;2023-04-24T05:52:36;8.27;;;5.85;;
61899;SDS011;47853;55.890;37.664;2023-04-24T05:55:01;11.67;;;7.23;;
61899;SDS011;47853;55.890;37.664;2023-04-24T05:57:26;11.93;;;6.03;;
61899;SDS011;47853;55.890;37.664;2023-04-24T05:59:51;14.60;;;6.30;;
61899;SDS011;47853;55.890;37.664;2023-04-24T06:02:16;14.97;;;6.90;;
61899;SDS011;47853;55.890;37.664;2023-04-24T06:04:42;15.10;;;7.00;;
61899;SDS011;47853;55.890;37.664;2023-04-24T06:07:07;12.00;;;6.27;;
61899;SDS011;47853;55.890;37.664;2023-04-24T06:09:32;9.43;;;5.73;;
61899;SDS011;47853;55.890;37.664;2023-04-24T06:11:58;8.80;;;5.13;;
61899;SDS011;47853;55.890;37.664;2023-04-24T06:14:23;11.23;;;5.90;;
61899;SDS011;47853;55.890;37.664;2023-04-24T06:16:48;12.77;;;5.77;;
61899;SDS011;47853;55.890;37.664;2023-04-24T06:19:13;8.67;;;5.30;;
61899;SDS011;47853;55.890;37.664;2023-04-24T06:21:38;14.10;;;5.30;;
61899;SDS011;47853;55.890;37.664;2023-04-24T06:24:04;13.57;;;5.40;;
61899;SDS011;47853;55.890;37.664;2023-04-24T06:26:29;14.30;;;5.40;;
61899;SDS011;47853;55.890;37.664;2023-04-24T06:28:54;11.10;;;4.87;;
61899;SDS011;47853;55.890;37.664;2023-04-24T06:31:19;14.20;;;5.70;;
61899;SDS011;47853;55.890;37.664;2023-04-24T06:33:45;14.00;;;5.55;;
61899;SDS011;47853;55.890;37.664;2023-04-24T06:36:10;17.70;;;5.30;;
61899;SDS011;47853;55.890;37.664;2023-04-24T06:38:35;13.13;;;5.40;;
61899;SDS011;47853;55.890;37.664;2023-04-24T06:41:00;9.60;;;5.17;;
61899;SDS011;47853;55.890;37.664;2023-04-24T06:43:26;10.40;;;4.70;;
61899;SDS011;47853;55.890;37.664;2023-04-24T06:45:51;7.47;;;4.67;;
61899;SDS011;47853;55.890;37.664;2023-04-24T06:48:16;12.63;;;4.83;;
61899;SDS011;47853;55.890;37.664;2023-04-24T06:50:41;17.20;;;5.20;;
61899;SDS011;47853;55.890;37.664;2023-04-24T06:53:06;12.30;;;5.27;;
61899;SDS011;47853;55.890;37.664;2023-04-24T06:55:31;13.23;;;5.67;;
61899;SDS011;47853;55.890;37.664;2023-04-24T06:57:57;10.05;;;5.40;;
61899;SDS011;47853;55.890;37.664;2023-04-24T07:00:22;12.77;;;4.70;;
61899;SDS011;47853;55.890;37.664;2023-04-24T07:02:47;8.77;;;4.60;;
61899;SDS011;47853;55.890;37.664;2023-04-24T07:05:12;14.60;;;5.83;;
61899;SDS011;47853;55.890;37.664;2023-04-24T07:07:37;12.80;;;5.13;;
61899;SDS011;47853;55.890;37.664;2023-04-24T07:10:03;14.80;;;8.57;;
61899;SDS011;47853;55.890;37.664;2023-04-24T07:12:29;16.27;;;8.52;;
61899;SDS011;47853;55.890;37.664;2023-04-24T07:14:54;12.90;;;4.93;;
61899;SDS011;47853;55.890;37.664;2023-04-24T07:17:19;12.13;;;5.43;;
61899;SDS011;47853;55.890;37.664;2023-04-24T07:19:44;9.60;;;4.60;;
61899;SDS011;47853;55.890;37.664;2023-04-24T07:22:09;20.00;;;5.20;;
61899;SDS011;47853;55.890;37.664;2023-04-24T07:24:34;11.53;;;4.97;;
61899;SDS011;47853;55.890;37.664;2023-04-24T07:27:00;6.57;;;4.67;;
61899;SDS011;47853;55.890;37.664;2023-04-24T07:29:25;7.33;;;4.30;;
61899;SDS011;47853;55.890;37.664;2023-04-24T07:31:50;11.93;;;4.67;;
61899;SDS011;47853;55.890;37.664;2023-04-24T07:34:15;10.10;;;4.50;;
61899;SDS011;47853;55.890;37.664;2023-04-24T07:36:40;12.67;;;4.50;;
61899;SDS011;47853;55.890;37.664;2023-04-24T07:39:06;6.45;;;4.43;;
61899;SDS011;47853;55.890;37.664;2023-04-24T07:41:31;8.87;;;4.40;;
61899;SDS011;47853;55.890;37.664;2023-04-24T07:43:56;8.18;;;4.03;;
61899;SDS011;47853;55.890;37.664;2023-04-24T07:46:21;13.53;;;4.83;;
61899;SDS011;47853;55.890;37.664;2023-04-24T07:48:46;9.00;;;4.50;;
61899;SDS011;47853;55.890;37.664;2023-04-24T07:51:12;8.47;;;5.03;;
61899;SDS011;47853;55.890;37.664;2023-04-24T07:53:37;5.47;;;4.63;;
61899;SDS011;47853;55.890;37.664;2023-04-24T07:56:02;7.00;;;4.63;;
61899;SDS011;47853;55.890;37.664;2023-04-24T07:58:27;8.20;;;4.93;;
61899;SDS011;47853;55.890;37.664;2023-04-24T08:00:52;7.63;;;4.63;;
61899;SDS011;47853;55.890;37.664;2023-04-24T08:03:17;22.53;;;17.10;;
61899;SDS011;47853;55.890;37.664;2023-04-24T08:05:43;7.17;;;4.60;;
61899;SDS011;47853;55.890;37.664;2023-04-24T08:08:08;10.03;;;4.60;;
61899;SDS011;47853;55.890;37.664;2023-04-24T08:10:33;9.67;;;4.47;;
61899;SDS011;47853;55.890;37.664;2023-04-24T08:12:58;9.87;;;4.33;;
61899;SDS011;47853;55.890;37.664;2023-04-24T08:15:23;12.67;;;4.53;;
61899;SDS011;47853;55.890;37.664;2023-04-24T08:17:48;7.40;;;4.60;;
61899;SDS011;47853;55.890;37.664;2023-04-24T08:20:14;4.23;;;3.80;;
61899;SDS011;47853;55.890;37.664;2023-04-24T08:22:39;6.07;;;3.80;;
61899;SDS011;47853;55.890;37.664;2023-04-24T08:25:05;6.05;;;3.85;;
61899;SDS011;47853;55.890;37.664;2023-04-24T08:27:30;7.57;;;4.47;;
61899;SDS011;47853;55.890;37.664;2023-04-24T08:29:56;7.50;;;4.00;;
61899;SDS011;47853;55.890;37.664;2023-04-24T08:32:21;7.05;;;4.65;;
61899;SDS011;47853;55.890;37.664;2023-04-24T08:34:47;7.40;;;4.60;;
61899;SDS011;47853;55.890;37.664;2023-04-24T08:37:13;4.90;;;4.40;;
61899;SDS011;47853;55.890;37.664;2023-04-24T08:39:38;14.32;;;4.78;;
61899;SDS011;47853;55.890;37.664;2023-04-24T08:42:04;8.48;;;4.85;;
61899;SDS011;47853;55.890;37.664;2023-04-24T08:44:29;8.68;;;4.93;;
61899;SDS011;47853;55.890;37.664;2023-04-24T08:46:55;10.23;;;4.90;;
61899;SDS011;47853;55.890;37.664;2023-04-24T08:49:21;10.15;;;5.28;;
61899;SDS011;47853;55.890;37.664;2023-04-24T08:51:49;9.02;;;4.88;;
61899;SDS011;47853;55.890;37.664;2023-04-24T08:54:15;9.38;;;4.65;;
61899;SDS011;47853;55.890;37.664;2023-04-24T08:56:40;7.82;;;4.43;;
61899;SDS011;47853;55.890;37.664;2023-04-24T08:59:09;5.38;;;3.83;;
61899;SDS011;47853;55.890;37.664;2023-04-24T09:01:35;5.13;;;4.37;;
61899;SDS011;47853;55.890;37.664;2023-04-24T09:04:02;9.70;;;4.80;;
61899;SDS011;47853;55.890;37.664;2023-04-24T09:06:28;7.20;;;4.60;;
61899;SDS011;47853;55.890;37.664;2023-04-24T09:08:53;10.05;;;4.32;;
61899;SDS011;47853;55.890;37.664;2023-04-24T09:11:19;15.50;;;5.20;;
61899;SDS011;47853;55.890;37.664;2023-04-24T09:13:44;17.10;;;4.93;;
61899;SDS011;47853;55.890;37.664;2023-04-24T09:16:10;13.90;;;5.28;;
61899;SDS011;47853;55.890;37.664;2023-04-24T09:18:35;10.45;;;4.72;;
61899;SDS011;47853;55.890;37.664;2023-04-24T09:21:01;9.93;;;4.70;;
61899;SDS011;47853;55.890;37.664;2023-04-24T09:23:29;7.30;;;4.55;;
61899;SDS011;47853;55.890;37.664;2023-04-24T09:25:55;6.97;;;4.32;;
61899;SDS011;47853;55.890;37.664;2023-04-24T09:28:24;4.50;;;4.10;;
61899;SDS011;47853;55.890;37.664;2023-04-24T09:31:01;7.28;;;4.38;;
61899;SDS011;47853;55.890;37.664;2023-04-24T09:33:26;6.22;;;4.68;;
61899;SDS011;47853;55.890;37.664;2023-04-24T09:35:51;13.27;;;5.20;;
61899;SDS011;47853;55.890;37.664;2023-04-24T09:38:17;11.30;;;4.83;;
61899;SDS011;47853;55.890;37.664;2023-04-24T09:40:42;7.27;;;4.67;;
61899;SDS011;47853;55.890;37.664;2023-04-24T09:43:10;14.23;;;5.07;;
61899;SDS011;47853;55.890;37.664;2023-04-24T09:45:36;9.00;;;4.75;;
61899;SDS011;47853;55.890;37.664;2023-04-24T09:48:01;9.07;;;4.57;;
61899;SDS011;47853;55.890;37.664;2023-04-24T09:50:26;5.57;;;4.30;;
61899;SDS011;47853;55.890;37.664;2023-04-24T09:52:58;6.68;;;4.20;;
61899;SDS011;47853;55.890;37.664;2023-04-24T09:55:24;9.73;;;4.30;;
61899;SDS011;47853;55.890;37.664;2023-04-24T09:57:53;10.05;;;4.35;;
61899;SDS011;47853;55.890;37.664;2023-04-24T10:00:28;9.85;;;4.30;;
61899;SDS011;47853;55.890;37.664;2023-04-24T10:02:59;7.00;;;4.70;;
61899;SDS011;47853;55.890;37.664;2023-04-24T10:05:26;8.60;;;4.15;;
61899;SDS011;47853;55.890;37.664;2023-04-24T10:07:55;7.25;;;4.57;;
61899;SDS011;47853;55.890;37.664;2023-04-24T10:10:20;14.20;;;4.35;;
61899;SDS011;47853;55.890;37.664;2023-04-24T10:12:46;9.75;;;4.70;;
61899;SDS011;47853;55.890;37.664;2023-04-24T10:15:11;12.63;;;4.60;;
61899;SDS011;47853;55.890;37.664;2023-04-24T10:17:37;6.28;;;4.10;;
61899;SDS011;47853;55.890;37.664;2023-04-24T10:20:02;7.07;;;4.00;;
61899;SDS011;47853;55.890;37.664;2023-04-24T10:22:27;14.20;;;4.75;;
61899;SDS011;47853;55.890;37.664;2023-04-24T10:24:53;14.52;;;4.43;;
61899;SDS011;47853;55.890;37.664;2023-04-24T10:27:19;18.37;;;15.20;;
61899;SDS011;47853;55.890;37.664;2023-04-24T10:29:45;7.22;;;4.45;;
61899;SDS011;47853;55.890;37.664;2023-04-24T10:32:12;11.55;;;4.20;;
61899;SDS011;47853;55.890;37.664;2023-04-24T10:34:37;6.77;;;4.50;;
61899;SDS011;47853;55.890;37.664;2023-04-24T10:37:02;5.83;;;4.30;;
61899;SDS011;47853;55.890;37.664;2023-04-24T10:39:27;8.50;;;4.23;;
61899;SDS011;47853;55.890;37.664;2023-04-24T10:41:53;6.40;;;4.57;;
61899;SDS011;47853;55.890;37.664;2023-04-24T10:44:18;6.65;;;4.20;;
61899;SDS011;47853;55.890;37.664;2023-04-24T10:46:47;11.50;;;4.55;;
61899;SDS011;47853;55.890;37.664;2023-04-24T10:49:17;9.52;;;5.20;;
61899;SDS011;47853;55.890;37.664;2023-04-24T10:51:52;8.88;;;4.10;;
61899;SDS011;47853;55.890;37.664;2023-04-24T10:56:49;5.68;;;4.32;;
61899;SDS011;47853;55.890;37.664;2023-04-24T10:59:23;8.13;;;3.90;;
61899;SDS011;47853;55.890;37.664;2023-04-24T11:01:52;6.35;;;4.40;;
61899;SDS011;47853;55.890;37.664;2023-04-24T11:04:21;8.50;;;3.72;;
61899;SDS011;47853;55.890;37.664;2023-04-24T11:06:53;8.75;;;3.65;;
61899;SDS011;47853;55.890;37.664;2023-04-24T11:09:18;8.23;;;4.37;;
61899;SDS011;47853;55.890;37.664;2023-04-24T11:11:46;7.43;;;4.05;;
61899;SDS011;47853;55.890;37.664;2023-04-24T11:14:13;7.18;;;4.05;;
61899;SDS011;47853;55.890;37.664;2023-04-24T11:16:59;8.85;;;3.55;;
61899;SDS011;47853;55.890;37.664;2023-04-24T11:19:25;5.50;;;3.80;;
61899;SDS011;47853;55.890;37.664;2023-04-24T11:27:00;7.37;;;4.00;;
61899;SDS011;47853;55.890;37.664;2023-04-24T11:29:42;7.32;;;4.05;;
61899;SDS011;47853;55.890;37.664;2023-04-24T11:34:52;8.13;;;4.43;;
61899;SDS011;47853;55.890;37.664;2023-04-24T11:37:18;7.82;;;3.92;;
61899;SDS011;47853;55.890;37.664;2023-04-24T11:39:43;7.87;;;4.53;;
61899;SDS011;47853;55.890;37.664;2023-04-24T11:42:08;7.83;;;3.97;;
61899;SDS011;47853;55.890;37.664;2023-04-24T11:44:34;7.32;;;4.20;;
61899;SDS011;47853;55.890;37.664;2023-04-24T11:46:59;8.88;;;3.90;;
61899;SDS011;47853;55.890;37.664;2023-04-24T11:49:24;7.10;;;4.00;;
61899;SDS011;47853;55.890;37.664;2023-04-24T11:51:50;10.97;;;4.53;;
61899;SDS011;47853;55.890;37.664;2023-04-24T11:54:15;7.60;;;4.18;;
61899;SDS011;47853;55.890;37.664;2023-04-24T11:56:44;10.23;;;4.10;;
61899;SDS011;47853;55.890;37.664;2023-04-24T11:59:09;5.63;;;3.80;;
61899;SDS011;47853;55.890;37.664;2023-04-24T12:01:44;4.70;;;3.57;;
61899;SDS011;47853;55.890;37.664;2023-04-24T12:04:09;10.45;;;8.38;;
61899;SDS011;47853;55.890;37.664;2023-04-24T12:06:34;6.57;;;3.17;;
61899;SDS011;47853;55.890;37.664;2023-04-24T12:08:59;9.80;;;4.00;;
61899;SDS011;47853;55.890;37.664;2023-04-24T12:11:24;5.93;;;3.77;;
61899;SDS011;47853;55.890;37.664;2023-04-24T12:13:50;7.00;;;3.87;;
61899;SDS011;47853;55.890;37.664;2023-04-24T12:16:15;9.30;;;3.87;;
61899;SDS011;47853;55.890;37.664;2023-04-24T12:18:44;8.13;;;4.03;;
61899;SDS011;47853;55.890;37.664;2023-04-24T12:21:19;5.57;;;4.35;;
61899;SDS011;47853;55.890;37.664;2023-04-24T12:23:44;7.00;;;4.25;;
61899;SDS011;47853;55.890;37.664;2023-04-24T12:26:10;16.42;;;11.85;;
61899;SDS011;47853;55.890;37.664;2023-04-24T12:28:35;8.50;;;4.20;;
61899;SDS011;47853;55.890;37.664;2023-04-24T12:31:01;9.00;;;4.05;;
61899;SDS011;47853;55.890;37.664;2023-04-24T12:33:26;5.55;;;3.78;;
61899;SDS011;47853;55.890;37.664;2023-04-24T12:35:52;7.40;;;4.80;;
61899;SDS011;47853;55.890;37.664;2023-04-24T12:38:21;10.10;;;4.13;;
61899;SDS011;47853;55.890;37.664;2023-04-24T12:40:46;11.55;;;4.13;;
61899;SDS011;47853;55.890;37.664;2023-04-24T12:43:15;7.13;;;3.70;;
61899;SDS011;47853;55.890;37.664;2023-04-24T12:45:40;6.60;;;4.05;;
61899;SDS011;47853;55.890;37.664;2023-04-24T12:48:05;12.37;;;4.50;;
61899;SDS011;47853;55.890;37.664;2023-04-24T12:50:30;7.33;;;4.33;;
61899;SDS011;47853;55.890;37.664;2023-04-24T12:52:55;11.77;;;4.00;;
61899;SDS011;47853;55.890;37.664;2023-04-24T12:55:20;10.50;;;3.90;;
61899;SDS011;47853;55.890;37.664;2023-04-24T12:57:46;7.40;;;3.80;;
61899;SDS011;47853;55.890;37.664;2023-04-24T13:00:11;8.65;;;3.97;;
61899;SDS011;47853;55.890;37.664;2023-04-24T13:02:36;8.52;;;4.00;;
61899;SDS011;47853;55.890;37.664;2023-04-24T13:05:02;6.60;;;3.45;;
61899;SDS011;47853;55.890;37.664;2023-04-24T13:07:27;10.60;;;3.72;;
61899;SDS011;47853;55.890;37.664;2023-04-24T13:09:53;10.47;;;3.70;;
61899;SDS011;47853;55.890;37.664;2023-04-24T13:12:19;8.07;;;3.70;;
61899;SDS011;47853;55.890;37.664;2023-04-24T13:14:44;9.75;;;3.45;;
61899;SDS011;47853;55.890;37.664;2023-04-24T13:17:09;7.07;;;4.20;;
61899;SDS011;47853;55.890;37.664;2023-04-24T13:19:38;6.43;;;4.00;;
61899;SDS011;47853;55.890;37.664;2023-04-24T13:22:04;8.13;;;3.90;;
61899;SDS011;47853;55.890;37.664;2023-04-24T13:24:29;8.82;;;3.80;;
61899;SDS011;47853;55.890;37.664;2023-04-24T13:26:54;9.63;;;3.47;;
61899;SDS011;47853;55.890;37.664;2023-04-24T13:29:19;8.65;;;4.25;;
61899;SDS011;47853;55.890;37.664;2023-04-24T13:31:50;4.85;;;3.40;;
61899;SDS011;47853;55.890;37.664;2023-04-24T13:34:15;6.38;;;3.75;;
61899;SDS011;47853;55.890;37.664;2023-04-24T13:36:40;5.07;;;3.00;;
61899;SDS011;47853;55.890;37.664;2023-04-24T13:39:05;6.97;;;4.00;;
61899;SDS011;47853;55.890;37.664;2023-04-24T13:41:30;10.00;;;3.50;;
61899;SDS011;47853;55.890;37.664;2023-04-24T13:43:56;6.30;;;3.65;;
61899;SDS011;47853;55.890;37.664;2023-04-24T13:46:22;9.63;;;3.77;;
61899;SDS011;47853;55.890;37.664;2023-04-24T13:48:47;8.33;;;3.13;;
61899;SDS011;47853;55.890;37.664;2023-04-24T13:51:12;5.50;;;3.80;;
61899;SDS011;47853;55.890;37.664;2023-04-24T13:53:37;6.00;;;4.33;;
61899;SDS011;47853;55.890;37.664;2023-04-24T13:56:02;6.97;;;4.50;;
61899;SDS011;47853;55.890;37.664;2023-04-24T13:58:28;6.68;;;4.90;;
61899;SDS011;47853;55.890;37.664;2023-04-24T14:00:53;6.17;;;3.57;;
61899;SDS011;47853;55.890;37.664;2023-04-24T14:03:18;11.43;;;4.70;;
61899;SDS011;47853;55.890;37.664;2023-04-24T14:05:43;14.60;;;3.53;;
61899;SDS011;47853;55.890;37.664;2023-04-24T14:08:08;6.97;;;3.80;;
61899;SDS011;47853;55.890;37.664;2023-04-24T14:10:34;7.87;;;3.50;;
61899;SDS011;47853;55.890;37.664;2023-04-24T14:12:59;4.07;;;3.03;;
61899;SDS011;47853;55.890;37.664;2023-04-24T14:15:24;9.17;;;3.60;;
61899;SDS011;47853;55.890;37.664;2023-04-24T14:17:49;15.23;;;4.00;;
61899;SDS011;47853;55.890;37.664;2023-04-24T14:20:14;13.20;;;3.77;;
61899;SDS011;47853;55.890;37.664;2023-04-24T14:22:40;34.17;;;29.33;;
61899;SDS011;47853;55.890;37.664;2023-04-24T14:25:05;13.87;;;5.10;;